sensor_id;sensor_type;location;lat;lon;timestamp;P1;durP1;ratioP1;P2;durP2;ratioP2
7835;SDS011;3963;42.658;23.298;2022-08-05T00:01:59;5.97;;;4.80;;
7835;SDS011;3963;42.658;23.298;2022-08-05T00:04:26;5.03;;;4.53;;
7835;SDS011;3963;42.658;23.298;2022-08-05T00:06:54;5.57;;;5.00;;
7835;SDS011;3963;42.658;23.298;2022-08-05T00:09:21;6.00;;;5.07;;
7835;SDS011;3963;42.658;23.298;2022-08-05T00:11:48;5.47;;;4.50;;
7835;SDS011;3963;42.658;23.298;2022-08-05T00:14:15;6.40;;;4.33;;
7835;SDS011;3963;42.658;23.298;2022-08-05T00:16:42;5.40;;;4.37;;
7835;SDS011;3963;42.658;23.298;2022-08-05T00:19:09;6.37;;;5.17;;
7835;SDS011;3963;42.658;23.298;2022-08-05T00:21:36;5.77;;;4.53;;
7835;SDS011;3963;42.658;23.298;2022-08-05T00:24:05;5.77;;;4.93;;
7835;SDS011;3963;42.658;23.298;2022-08-05T00:26:32;4.93;;;4.40;;
7835;SDS011;3963;42.658;23.298;2022-08-05T00:28:59;4.50;;;4.10;;
7835;SDS011;3963;42.658;23.298;2022-08-05T00:31:26;6.93;;;4.30;;
7835;SDS011;3963;42.658;23.298;2022-08-05T00:33:53;5.63;;;4.53;;
7835;SDS011;3963;42.658;23.298;2022-08-05T00:36:19;5.40;;;4.50;;
7835;SDS011;3963;42.658;23.298;2022-08-05T00:38:48;5.60;;;4.57;;
7835;SDS011;3963;42.658;23.298;2022-08-05T00:41:27;5.67;;;4.40;;
7835;SDS011;3963;42.658;23.298;2022-08-05T00:43:54;10.67;;;4.90;;
7835;SDS011;3963;42.658;23.298;2022-08-05T00:46:21;6.30;;;4.80;;
7835;SDS011;3963;42.658;23.298;2022-08-05T00:48:48;5.23;;;4.37;;
7835;SDS011;3963;42.658;23.298;2022-08-05T00:51:15;6.23;;;5.17;;
7835;SDS011;3963;42.658;23.298;2022-08-05T00:53:42;7.43;;;4.93;;
7835;SDS011;3963;42.658;23.298;2022-08-05T00:56:09;7.47;;;4.87;;
7835;SDS011;3963;42.658;23.298;2022-08-05T00:58:38;4.87;;;4.37;;
7835;SDS011;3963;42.658;23.298;2022-08-05T01:01:05;5.40;;;4.77;;
7835;SDS011;3963;42.658;23.298;2022-08-05T01:03:32;6.70;;;5.33;;
7835;SDS011;3963;42.658;23.298;2022-08-05T01:05:59;6.40;;;4.63;;
7835;SDS011;3963;42.658;23.298;2022-08-05T01:08:26;6.77;;;5.40;;
7835;SDS011;3963;42.658;23.298;2022-08-05T01:10:54;5.90;;;5.30;;
7835;SDS011;3963;42.658;23.298;2022-08-05T01:13:28;5.20;;;4.70;;
7835;SDS011;3963;42.658;23.298;2022-08-05T01:16:03;7.90;;;4.70;;
7835;SDS011;3963;42.658;23.298;2022-08-05T01:18:41;6.70;;;5.07;;
7835;SDS011;3963;42.658;23.298;2022-08-05T01:21:19;5.23;;;4.73;;
7835;SDS011;3963;42.658;23.298;2022-08-05T01:24:00;6.27;;;4.43;;
7835;SDS011;3963;42.658;23.298;2022-08-05T01:26:39;5.87;;;4.60;;
7835;SDS011;3963;42.658;23.298;2022-08-05T01:29:16;5.83;;;4.70;;
7835;SDS011;3963;42.658;23.298;2022-08-05T01:31:47;5.30;;;4.80;;
7835;SDS011;3963;42.658;23.298;2022-08-05T01:34:17;11.67;;;5.13;;
7835;SDS011;3963;42.658;23.298;2022-08-05T01:36:49;7.20;;;4.87;;
7835;SDS011;3963;42.658;23.298;2022-08-05T01:39:20;8.00;;;4.90;;
7835;SDS011;3963;42.658;23.298;2022-08-05T01:41:48;5.30;;;4.80;;
7835;SDS011;3963;42.658;23.298;2022-08-05T01:44:18;7.27;;;4.80;;
7835;SDS011;3963;42.658;23.298;2022-08-05T01:46:47;10.23;;;5.10;;
7835;SDS011;3963;42.658;23.298;2022-08-05T01:49:15;5.90;;;4.80;;
7835;SDS011;3963;42.658;23.298;2022-08-05T01:51:45;7.30;;;5.30;;
7835;SDS011;3963;42.658;23.298;2022-08-05T01:54:14;6.53;;;5.27;;
7835;SDS011;3963;42.658;23.298;2022-08-05T01:56:42;6.13;;;4.93;;
7835;SDS011;3963;42.658;23.298;2022-08-05T01:59:12;5.67;;;4.63;;
7835;SDS011;3963;42.658;23.298;2022-08-05T02:01:43;5.67;;;4.97;;
7835;SDS011;3963;42.658;23.298;2022-08-05T02:04:12;7.90;;;5.17;;
7835;SDS011;3963;42.658;23.298;2022-08-05T02:06:42;6.10;;;5.17;;
7835;SDS011;3963;42.658;23.298;2022-08-05T02:09:09;7.13;;;5.13;;
7835;SDS011;3963;42.658;23.298;2022-08-05T02:11:39;6.13;;;5.27;;
7835;SDS011;3963;42.658;23.298;2022-08-05T02:14:13;7.57;;;5.73;;
7835;SDS011;3963;42.658;23.298;2022-08-05T02:16:48;6.73;;;4.73;;
7835;SDS011;3963;42.658;23.298;2022-08-05T02:19:19;6.97;;;5.70;;
7835;SDS011;3963;42.658;23.298;2022-08-05T02:21:51;9.43;;;5.53;;
7835;SDS011;3963;42.658;23.298;2022-08-05T02:24:24;9.23;;;5.10;;
7835;SDS011;3963;42.658;23.298;2022-08-05T02:26:57;5.83;;;4.97;;
7835;SDS011;3963;42.658;23.298;2022-08-05T02:29:27;9.20;;;5.83;;
7835;SDS011;3963;42.658;23.298;2022-08-05T02:31:57;14.60;;;5.13;;
7835;SDS011;3963;42.658;23.298;2022-08-05T02:34:28;8.07;;;5.97;;
7835;SDS011;3963;42.658;23.298;2022-08-05T02:36:58;10.37;;;5.80;;
7835;SDS011;3963;42.658;23.298;2022-08-05T02:39:28;8.03;;;5.30;;
7835;SDS011;3963;42.658;23.298;2022-08-05T02:42:00;7.00;;;5.60;;
7835;SDS011;3963;42.658;23.298;2022-08-05T02:44:28;6.27;;;5.50;;
7835;SDS011;3963;42.658;23.298;2022-08-05T02:46:58;7.20;;;5.30;;
7835;SDS011;3963;42.658;23.298;2022-08-05T02:49:26;6.20;;;5.27;;
7835;SDS011;3963;42.658;23.298;2022-08-05T02:51:57;7.83;;;5.93;;
7835;SDS011;3963;42.658;23.298;2022-08-05T02:54:24;6.20;;;5.27;;
7835;SDS011;3963;42.658;23.298;2022-08-05T02:56:53;7.43;;;5.60;;
7835;SDS011;3963;42.658;23.298;2022-08-05T02:59:20;8.60;;;5.10;;
7835;SDS011;3963;42.658;23.298;2022-08-05T03:01:50;6.87;;;6.13;;
7835;SDS011;3963;42.658;23.298;2022-08-05T03:04:23;7.20;;;5.17;;
7835;SDS011;3963;42.658;23.298;2022-08-05T03:06:50;7.23;;;5.67;;
7835;SDS011;3963;42.658;23.298;2022-08-05T03:09:17;7.70;;;5.40;;
7835;SDS011;3963;42.658;23.298;2022-08-05T03:11:45;6.57;;;5.27;;
7835;SDS011;3963;42.658;23.298;2022-08-05T03:14:12;10.83;;;5.60;;
7835;SDS011;3963;42.658;23.298;2022-08-05T03:16:39;7.63;;;5.50;;
7835;SDS011;3963;42.658;23.298;2022-08-05T03:19:05;6.60;;;5.10;;
7835;SDS011;3963;42.658;23.298;2022-08-05T03:21:34;6.23;;;5.40;;
7835;SDS011;3963;42.658;23.298;2022-08-05T03:24:01;7.83;;;5.80;;
7835;SDS011;3963;42.658;23.298;2022-08-05T03:26:29;6.03;;;5.43;;
7835;SDS011;3963;42.658;23.298;2022-08-05T03:28:56;6.23;;;5.47;;
7835;SDS011;3963;42.658;23.298;2022-08-05T03:31:24;7.80;;;5.43;;
7835;SDS011;3963;42.658;23.298;2022-08-05T03:33:51;6.53;;;5.03;;
7835;SDS011;3963;42.658;23.298;2022-08-05T03:36:18;6.60;;;5.27;;
7835;SDS011;3963;42.658;23.298;2022-08-05T03:38:47;11.40;;;5.70;;
7835;SDS011;3963;42.658;23.298;2022-08-05T03:41:14;6.97;;;5.63;;
7835;SDS011;3963;42.658;23.298;2022-08-05T03:43:42;8.43;;;5.13;;
7835;SDS011;3963;42.658;23.298;2022-08-05T03:46:09;10.93;;;5.57;;
7835;SDS011;3963;42.658;23.298;2022-08-05T03:48:36;7.03;;;5.80;;
7835;SDS011;3963;42.658;23.298;2022-08-05T03:51:06;7.80;;;5.43;;
7835;SDS011;3963;42.658;23.298;2022-08-05T03:53:38;11.00;;;5.73;;
7835;SDS011;3963;42.658;23.298;2022-08-05T03:56:11;8.17;;;5.50;;
7835;SDS011;3963;42.658;23.298;2022-08-05T03:58:47;8.07;;;5.73;;
7835;SDS011;3963;42.658;23.298;2022-08-05T04:01:16;12.83;;;5.80;;
7835;SDS011;3963;42.658;23.298;2022-08-05T04:03:46;7.67;;;5.70;;
7835;SDS011;3963;42.658;23.298;2022-08-05T04:06:15;10.23;;;6.17;;
7835;SDS011;3963;42.658;23.298;2022-08-05T04:08:44;7.93;;;5.77;;
7835;SDS011;3963;42.658;23.298;2022-08-05T04:11:13;14.07;;;6.27;;
7835;SDS011;3963;42.658;23.298;2022-08-05T04:13:41;8.33;;;5.67;;
7835;SDS011;3963;42.658;23.298;2022-08-05T04:16:08;11.53;;;6.00;;
7835;SDS011;3963;42.658;23.298;2022-08-05T04:18:35;8.87;;;6.17;;
7835;SDS011;3963;42.658;23.298;2022-08-05T04:21:03;8.87;;;6.20;;
7835;SDS011;3963;42.658;23.298;2022-08-05T04:23:30;8.00;;;5.83;;
7835;SDS011;3963;42.658;23.298;2022-08-05T04:25:59;6.53;;;5.47;;
7835;SDS011;3963;42.658;23.298;2022-08-05T04:28:27;10.23;;;6.10;;
7835;SDS011;3963;42.658;23.298;2022-08-05T04:30:54;9.17;;;6.33;;
7835;SDS011;3963;42.658;23.298;2022-08-05T04:33:21;9.37;;;6.00;;
7835;SDS011;3963;42.658;23.298;2022-08-05T04:35:48;10.10;;;6.17;;
7835;SDS011;3963;42.658;23.298;2022-08-05T04:38:15;13.13;;;6.63;;
7835;SDS011;3963;42.658;23.298;2022-08-05T04:40:42;9.90;;;7.13;;
7835;SDS011;3963;42.658;23.298;2022-08-05T04:43:09;8.47;;;7.37;;
7835;SDS011;3963;42.658;23.298;2022-08-05T04:45:37;10.17;;;6.77;;
7835;SDS011;3963;42.658;23.298;2022-08-05T04:48:06;15.53;;;7.33;;
7835;SDS011;3963;42.658;23.298;2022-08-05T04:50:37;10.00;;;7.03;;
7835;SDS011;3963;42.658;23.298;2022-08-05T04:53:06;8.10;;;6.80;;
7835;SDS011;3963;42.658;23.298;2022-08-05T04:55:33;9.37;;;7.90;;
7835;SDS011;3963;42.658;23.298;2022-08-05T04:58:01;10.07;;;7.63;;
7835;SDS011;3963;42.658;23.298;2022-08-05T05:00:28;10.33;;;7.97;;
7835;SDS011;3963;42.658;23.298;2022-08-05T05:02:56;14.30;;;8.10;;
7835;SDS011;3963;42.658;23.298;2022-08-05T05:05:23;13.07;;;8.50;;
7835;SDS011;3963;42.658;23.298;2022-08-05T05:07:50;9.97;;;7.67;;
7835;SDS011;3963;42.658;23.298;2022-08-05T05:10:17;14.63;;;8.27;;
7835;SDS011;3963;42.658;23.298;2022-08-05T05:12:44;11.73;;;7.93;;
7835;SDS011;3963;42.658;23.298;2022-08-05T05:15:10;13.50;;;8.17;;
7835;SDS011;3963;42.658;23.298;2022-08-05T05:17:38;14.67;;;8.53;;
7835;SDS011;3963;42.658;23.298;2022-08-05T05:20:07;11.20;;;8.60;;
7835;SDS011;3963;42.658;23.298;2022-08-05T05:22:35;10.83;;;8.07;;
7835;SDS011;3963;42.658;23.298;2022-08-05T05:25:02;10.50;;;7.63;;
7835;SDS011;3963;42.658;23.298;2022-08-05T05:27:31;12.57;;;7.80;;
7835;SDS011;3963;42.658;23.298;2022-08-05T05:29:59;12.60;;;8.07;;
7835;SDS011;3963;42.658;23.298;2022-08-05T05:32:26;16.33;;;8.00;;
7835;SDS011;3963;42.658;23.298;2022-08-05T05:34:53;12.33;;;8.10;;
7835;SDS011;3963;42.658;23.298;2022-08-05T05:37:22;13.03;;;8.33;;
7835;SDS011;3963;42.658;23.298;2022-08-05T05:39:49;12.00;;;8.20;;
7835;SDS011;3963;42.658;23.298;2022-08-05T05:42:16;12.97;;;8.30;;
7835;SDS011;3963;42.658;23.298;2022-08-05T05:44:43;12.70;;;8.00;;
7835;SDS011;3963;42.658;23.298;2022-08-05T05:47:10;17.77;;;8.60;;
7835;SDS011;3963;42.658;23.298;2022-08-05T05:49:36;14.33;;;8.70;;
7835;SDS011;3963;42.658;23.298;2022-08-05T05:52:03;13.40;;;8.63;;
7835;SDS011;3963;42.658;23.298;2022-08-05T05:54:32;10.57;;;8.37;;
7835;SDS011;3963;42.658;23.298;2022-08-05T05:56:59;13.33;;;8.30;;
7835;SDS011;3963;42.658;23.298;2022-08-05T05:59:26;13.27;;;9.27;;
7835;SDS011;3963;42.658;23.298;2022-08-05T06:01:52;15.63;;;8.23;;
7835;SDS011;3963;42.658;23.298;2022-08-05T06:04:19;11.70;;;9.03;;
7835;SDS011;3963;42.658;23.298;2022-08-05T06:06:46;15.37;;;8.13;;
7835;SDS011;3963;42.658;23.298;2022-08-05T06:09:13;11.30;;;7.97;;
7835;SDS011;3963;42.658;23.298;2022-08-05T06:11:41;17.23;;;10.87;;
7835;SDS011;3963;42.658;23.298;2022-08-05T06:14:09;11.03;;;7.97;;
7835;SDS011;3963;42.658;23.298;2022-08-05T06:16:36;9.23;;;7.20;;
7835;SDS011;3963;42.658;23.298;2022-08-05T06:19:03;13.13;;;7.87;;
7835;SDS011;3963;42.658;23.298;2022-08-05T06:21:30;9.43;;;7.40;;
7835;SDS011;3963;42.658;23.298;2022-08-05T06:23:57;11.93;;;6.97;;
7835;SDS011;3963;42.658;23.298;2022-08-05T06:26:24;9.63;;;7.30;;
7835;SDS011;3963;42.658;23.298;2022-08-05T06:28:52;9.93;;;7.50;;
7835;SDS011;3963;42.658;23.298;2022-08-05T06:31:19;10.87;;;7.70;;
7835;SDS011;3963;42.658;23.298;2022-08-05T06:33:46;11.70;;;7.00;;
7835;SDS011;3963;42.658;23.298;2022-08-05T06:36:13;12.53;;;8.20;;
7835;SDS011;3963;42.658;23.298;2022-08-05T06:38:40;10.30;;;6.70;;
7835;SDS011;3963;42.658;23.298;2022-08-05T06:41:07;8.87;;;6.60;;
7835;SDS011;3963;42.658;23.298;2022-08-05T06:43:34;8.57;;;6.50;;
7835;SDS011;3963;42.658;23.298;2022-08-05T06:46:02;13.73;;;7.93;;
7835;SDS011;3963;42.658;23.298;2022-08-05T06:48:29;8.47;;;6.60;;
7835;SDS011;3963;42.658;23.298;2022-08-05T06:50:58;8.27;;;7.07;;
7835;SDS011;3963;42.658;23.298;2022-08-05T06:53:25;12.50;;;8.70;;
7835;SDS011;3963;42.658;23.298;2022-08-05T06:55:52;10.50;;;7.47;;
7835;SDS011;3963;42.658;23.298;2022-08-05T06:58:19;9.93;;;6.20;;
7835;SDS011;3963;42.658;23.298;2022-08-05T07:00:46;10.27;;;7.53;;
7835;SDS011;3963;42.658;23.298;2022-08-05T07:03:14;8.97;;;6.60;;
7835;SDS011;3963;42.658;23.298;2022-08-05T07:05:40;9.17;;;7.20;;
7835;SDS011;3963;42.658;23.298;2022-08-05T07:08:07;9.67;;;7.10;;
7835;SDS011;3963;42.658;23.298;2022-08-05T07:10:34;7.70;;;6.80;;
7835;SDS011;3963;42.658;23.298;2022-08-05T07:13:01;14.47;;;9.60;;
7835;SDS011;3963;42.658;23.298;2022-08-05T07:15:45;9.10;;;7.43;;
7835;SDS011;3963;42.658;23.298;2022-08-05T07:18:31;8.70;;;7.00;;
7835;SDS011;3963;42.658;23.298;2022-08-05T07:20:58;10.27;;;8.10;;
7835;SDS011;3963;42.658;23.298;2022-08-05T07:23:25;9.70;;;7.00;;
7835;SDS011;3963;42.658;23.298;2022-08-05T07:25:52;11.63;;;9.50;;
7835;SDS011;3963;42.658;23.298;2022-08-05T07:28:19;11.23;;;6.33;;
7835;SDS011;3963;42.658;23.298;2022-08-05T07:30:46;6.77;;;5.73;;
7835;SDS011;3963;42.658;23.298;2022-08-05T07:33:13;9.73;;;8.10;;
7835;SDS011;3963;42.658;23.298;2022-08-05T07:35:41;8.87;;;7.27;;
7835;SDS011;3963;42.658;23.298;2022-08-05T07:38:08;8.53;;;6.27;;
7835;SDS011;3963;42.658;23.298;2022-08-05T07:40:35;9.63;;;6.47;;
7835;SDS011;3963;42.658;23.298;2022-08-05T07:43:02;9.73;;;6.80;;
7835;SDS011;3963;42.658;23.298;2022-08-05T07:45:29;9.05;;;6.07;;
7835;SDS011;3963;42.658;23.298;2022-08-05T07:47:56;8.10;;;5.90;;
7835;SDS011;3963;42.658;23.298;2022-08-05T07:50:23;9.20;;;5.80;;
7835;SDS011;3963;42.658;23.298;2022-08-05T07:52:51;11.05;;;6.35;;
7835;SDS011;3963;42.658;23.298;2022-08-05T07:55:18;10.15;;;6.38;;
7835;SDS011;3963;42.658;23.298;2022-08-05T07:57:44;7.80;;;6.03;;
7835;SDS011;3963;42.658;23.298;2022-08-05T08:00:11;7.32;;;5.45;;
7835;SDS011;3963;42.658;23.298;2022-08-05T08:02:39;12.10;;;7.90;;
7835;SDS011;3963;42.658;23.298;2022-08-05T08:05:08;8.50;;;5.68;;
7835;SDS011;3963;42.658;23.298;2022-08-05T08:07:35;9.05;;;5.13;;
7835;SDS011;3963;42.658;23.298;2022-08-05T08:10:04;10.50;;;6.30;;
7835;SDS011;3963;42.658;23.298;2022-08-05T08:12:31;6.07;;;5.22;;
7835;SDS011;3963;42.658;23.298;2022-08-05T08:14:58;10.02;;;5.72;;
7835;SDS011;3963;42.658;23.298;2022-08-05T08:17:25;9.68;;;5.47;;
7835;SDS011;3963;42.658;23.298;2022-08-05T08:19:52;9.02;;;5.75;;
7835;SDS011;3963;42.658;23.298;2022-08-05T08:22:23;7.60;;;5.07;;
7835;SDS011;3963;42.658;23.298;2022-08-05T08:24:52;9.02;;;5.32;;
7835;SDS011;3963;42.658;23.298;2022-08-05T08:27:20;6.32;;;5.07;;
7835;SDS011;3963;42.658;23.298;2022-08-05T08:29:47;9.07;;;5.03;;
7835;SDS011;3963;42.658;23.298;2022-08-05T08:32:14;10.60;;;7.75;;
7835;SDS011;3963;42.658;23.298;2022-08-05T08:34:41;5.78;;;4.38;;
7835;SDS011;3963;42.658;23.298;2022-08-05T08:37:07;6.38;;;4.30;;
7835;SDS011;3963;42.658;23.298;2022-08-05T08:39:34;6.93;;;4.45;;
7835;SDS011;3963;42.658;23.298;2022-08-05T08:42:01;5.82;;;3.80;;
7835;SDS011;3963;42.658;23.298;2022-08-05T08:44:31;8.68;;;4.30;;
7835;SDS011;3963;42.658;23.298;2022-08-05T08:46:58;6.30;;;4.35;;
7835;SDS011;3963;42.658;23.298;2022-08-05T08:49:27;4.55;;;4.15;;
7835;SDS011;3963;42.658;23.298;2022-08-05T08:52:00;6.40;;;4.70;;
7835;SDS011;3963;42.658;23.298;2022-08-05T08:54:31;7.10;;;4.45;;
7835;SDS011;3963;42.658;23.298;2022-08-05T08:56:58;4.35;;;3.88;;
7835;SDS011;3963;42.658;23.298;2022-08-05T08:59:26;7.00;;;4.10;;
7835;SDS011;3963;42.658;23.298;2022-08-05T09:01:55;5.30;;;3.33;;
7835;SDS011;3963;42.658;23.298;2022-08-05T09:04:22;8.02;;;3.83;;
7835;SDS011;3963;42.658;23.298;2022-08-05T09:06:50;4.18;;;3.30;;
7835;SDS011;3963;42.658;23.298;2022-08-05T09:09:16;5.45;;;3.90;;
7835;SDS011;3963;42.658;23.298;2022-08-05T09:11:43;6.00;;;3.20;;
7835;SDS011;3963;42.658;23.298;2022-08-05T09:14:10;6.47;;;3.35;;
7835;SDS011;3963;42.658;23.298;2022-08-05T09:16:37;4.15;;;2.97;;
7835;SDS011;3963;42.658;23.298;2022-08-05T09:19:07;5.32;;;3.45;;
7835;SDS011;3963;42.658;23.298;2022-08-05T09:21:34;7.18;;;3.50;;
7835;SDS011;3963;42.658;23.298;2022-08-05T09:24:01;3.42;;;3.13;;
7835;SDS011;3963;42.658;23.298;2022-08-05T09:26:29;4.45;;;3.30;;
7835;SDS011;3963;42.658;23.298;2022-08-05T09:28:58;6.55;;;3.70;;
7835;SDS011;3963;42.658;23.298;2022-08-05T09:31:25;5.45;;;3.60;;
7835;SDS011;3963;42.658;23.298;2022-08-05T09:33:53;9.18;;;4.00;;
7835;SDS011;3963;42.658;23.298;2022-08-05T09:36:24;5.97;;;3.50;;
7835;SDS011;3963;42.658;23.298;2022-08-05T09:39:05;3.88;;;3.47;;
7835;SDS011;3963;42.658;23.298;2022-08-05T09:41:34;5.35;;;3.13;;
7835;SDS011;3963;42.658;23.298;2022-08-05T09:44:31;4.80;;;3.45;;
7835;SDS011;3963;42.658;23.298;2022-08-05T09:47:05;5.28;;;3.42;;
7835;SDS011;3963;42.658;23.298;2022-08-05T09:49:34;6.85;;;3.20;;
7835;SDS011;3963;42.658;23.298;2022-08-05T09:52:16;4.32;;;3.30;;
7835;SDS011;3963;42.658;23.298;2022-08-05T09:54:50;5.03;;;3.10;;
7835;SDS011;3963;42.658;23.298;2022-08-05T09:57:27;10.50;;;3.10;;
7835;SDS011;3963;42.658;23.298;2022-08-05T09:59:56;4.55;;;2.90;;
7835;SDS011;3963;42.658;23.298;2022-08-05T10:02:34;3.42;;;3.13;;
7835;SDS011;3963;42.658;23.298;2022-08-05T10:05:03;5.68;;;3.55;;
7835;SDS011;3963;42.658;23.298;2022-08-05T10:07:47;3.50;;;3.17;;
7835;SDS011;3963;42.658;23.298;2022-08-05T10:10:16;3.58;;;3.25;;
7835;SDS011;3963;42.658;23.298;2022-08-05T10:12:45;3.88;;;2.97;;
7835;SDS011;3963;42.658;23.298;2022-08-05T10:15:21;3.65;;;3.35;;
7835;SDS011;3963;42.658;23.298;2022-08-05T10:18:09;3.83;;;3.45;;
7835;SDS011;3963;42.658;23.298;2022-08-05T10:20:39;4.72;;;3.63;;
7835;SDS011;3963;42.658;23.298;2022-08-05T10:23:10;3.88;;;3.38;;
7835;SDS011;3963;42.658;23.298;2022-08-05T10:25:38;5.78;;;3.58;;
7835;SDS011;3963;42.658;23.298;2022-08-05T10:28:06;4.43;;;3.60;;
7835;SDS011;3963;42.658;23.298;2022-08-05T10:30:33;6.30;;;4.05;;
7835;SDS011;3963;42.658;23.298;2022-08-05T10:33:00;7.45;;;4.05;;
7835;SDS011;3963;42.658;23.298;2022-08-05T10:35:28;4.70;;;3.65;;
7835;SDS011;3963;42.658;23.298;2022-08-05T10:37:55;8.15;;;3.88;;
7835;SDS011;3963;42.658;23.298;2022-08-05T10:40:27;3.65;;;3.20;;
7835;SDS011;3963;42.658;23.298;2022-08-05T10:43:00;3.95;;;3.55;;
7835;SDS011;3963;42.658;23.298;2022-08-05T10:45:32;3.97;;;3.63;;
7835;SDS011;3963;42.658;23.298;2022-08-05T10:51:00;3.63;;;3.25;;
7835;SDS011;3963;42.658;23.298;2022-08-05T10:53:34;4.75;;;3.63;;
7835;SDS011;3963;42.658;23.298;2022-08-05T10:56:04;3.80;;;3.40;;
7835;SDS011;3963;42.658;23.298;2022-08-05T10:58:33;4.90;;;3.40;;
7835;SDS011;3963;42.658;23.298;2022-08-05T11:01:03;4.28;;;3.38;;
7835;SDS011;3963;42.658;23.298;2022-08-05T11:03:31;4.63;;;3.47;;
7835;SDS011;3963;42.658;23.298;2022-08-05T11:06:02;4.13;;;3.40;;
7835;SDS011;3963;42.658;23.298;2022-08-05T11:08:34;3.75;;;3.42;;
7835;SDS011;3963;42.658;23.298;2022-08-05T11:13:59;5.03;;;3.55;;
7835;SDS011;3963;42.658;23.298;2022-08-05T11:16:27;10.07;;;3.88;;
7835;SDS011;3963;42.658;23.298;2022-08-05T11:21:49;4.78;;;3.58;;
7835;SDS011;3963;42.658;23.298;2022-08-05T11:24:16;4.88;;;4.22;;
7835;SDS011;3963;42.658;23.298;2022-08-05T11:26:47;6.88;;;3.83;;
7835;SDS011;3963;42.658;23.298;2022-08-05T11:29:34;4.78;;;3.80;;
7835;SDS011;3963;42.658;23.298;2022-08-05T11:34:51;4.43;;;3.92;;
7835;SDS011;3963;42.658;23.298;2022-08-05T11:43:28;5.57;;;3.85;;
7835;SDS011;3963;42.658;23.298;2022-08-05T11:45:55;4.57;;;3.78;;
7835;SDS011;3963;42.658;23.298;2022-08-05T11:48:22;4.72;;;3.80;;
7835;SDS011;3963;42.658;23.298;2022-08-05T11:50:50;3.80;;;3.50;;
7835;SDS011;3963;42.658;23.298;2022-08-05T11:53:18;5.93;;;4.20;;
7835;SDS011;3963;42.658;23.298;2022-08-05T11:55:52;4.20;;;3.80;;
7835;SDS011;3963;42.658;23.298;2022-08-05T11:58:33;4.03;;;3.60;;
7835;SDS011;3963;42.658;23.298;2022-08-05T12:01:02;4.75;;;3.75;;
7835;SDS011;3963;42.658;23.298;2022-08-05T12:03:33;4.60;;;4.20;;
7835;SDS011;3963;42.658;23.298;2022-08-05T12:06:06;4.18;;;3.78;;
7835;SDS011;3963;42.658;23.298;2022-08-05T12:08:38;6.90;;;3.88;;
7835;SDS011;3963;42.658;23.298;2022-08-05T12:11:07;4.20;;;3.78;;
7835;SDS011;3963;42.658;23.298;2022-08-05T12:13:37;5.50;;;3.85;;
7835;SDS011;3963;42.658;23.298;2022-08-05T12:16:05;9.57;;;4.43;;
7835;SDS011;3963;42.658;23.298;2022-08-05T12:18:33;4.60;;;3.75;;
7835;SDS011;3963;42.658;23.298;2022-08-05T12:21:08;4.15;;;3.75;;
7835;SDS011;3963;42.658;23.298;2022-08-05T12:23:36;4.35;;;3.95;;
7835;SDS011;3963;42.658;23.298;2022-08-05T12:26:02;4.97;;;3.78;;
7835;SDS011;3963;42.658;23.298;2022-08-05T12:28:30;4.53;;;3.55;;
7835;SDS011;3963;42.658;23.298;2022-08-05T12:31:02;4.05;;;3.55;;
7835;SDS011;3963;42.658;23.298;2022-08-05T12:33:29;5.57;;;4.22;;
7835;SDS011;3963;42.658;23.298;2022-08-05T12:35:56;4.38;;;3.97;;
7835;SDS011;3963;42.658;23.298;2022-08-05T12:38:23;4.85;;;3.80;;
7835;SDS011;3963;42.658;23.298;2022-08-05T12:40:50;4.30;;;3.85;;
7835;SDS011;3963;42.658;23.298;2022-08-05T12:43:18;8.52;;;4.20;;
7835;SDS011;3963;42.658;23.298;2022-08-05T12:45:49;4.97;;;4.28;;
7835;SDS011;3963;42.658;23.298;2022-08-05T12:48:18;4.63;;;3.80;;
7835;SDS011;3963;42.658;23.298;2022-08-05T12:53:46;6.18;;;4.75;;
7835;SDS011;3963;42.658;23.298;2022-08-05T12:56:20;5.78;;;3.58;;
7835;SDS011;3963;42.658;23.298;2022-08-05T13:01:37;8.30;;;4.82;;
7835;SDS011;3963;42.658;23.298;2022-08-05T13:04:05;10.13;;;5.18;;
7835;SDS011;3963;42.658;23.298;2022-08-05T13:06:32;8.52;;;4.32;;
7835;SDS011;3963;42.658;23.298;2022-08-05T13:09:04;9.63;;;5.00;;
7835;SDS011;3963;42.658;23.298;2022-08-05T13:11:32;8.18;;;4.80;;
7835;SDS011;3963;42.658;23.298;2022-08-05T13:14:08;12.00;;;6.10;;
7835;SDS011;3963;42.658;23.298;2022-08-05T13:16:46;8.60;;;5.20;;
7835;SDS011;3963;42.658;23.298;2022-08-05T13:19:14;9.57;;;5.47;;
7835;SDS011;3963;42.658;23.298;2022-08-05T13:21:41;8.75;;;5.35;;
7835;SDS011;3963;42.658;23.298;2022-08-05T13:24:11;8.68;;;5.15;;
7835;SDS011;3963;42.658;23.298;2022-08-05T13:26:38;6.90;;;4.10;;
7835;SDS011;3963;42.658;23.298;2022-08-05T13:29:05;4.90;;;4.07;;
7835;SDS011;3963;42.658;23.298;2022-08-05T13:31:32;5.13;;;4.15;;
7835;SDS011;3963;42.658;23.298;2022-08-05T13:33:58;4.00;;;3.70;;
7835;SDS011;3963;42.658;23.298;2022-08-05T13:36:27;7.18;;;4.50;;
7835;SDS011;3963;42.658;23.298;2022-08-05T13:38:53;5.90;;;3.67;;
7835;SDS011;3963;42.658;23.298;2022-08-05T13:41:20;4.10;;;3.70;;
7835;SDS011;3963;42.658;23.298;2022-08-05T13:43:47;5.65;;;4.18;;
7835;SDS011;3963;42.658;23.298;2022-08-05T13:46:14;5.47;;;4.10;;
7835;SDS011;3963;42.658;23.298;2022-08-05T13:48:41;10.43;;;4.47;;
7835;SDS011;3963;42.658;23.298;2022-08-05T13:51:08;4.65;;;4.20;;
7835;SDS011;3963;42.658;23.298;2022-08-05T13:53:38;5.35;;;4.35;;
7835;SDS011;3963;42.658;23.298;2022-08-05T13:56:06;4.60;;;4.15;;
7835;SDS011;3963;42.658;23.298;2022-08-05T13:58:34;8.13;;;4.05;;
7835;SDS011;3963;42.658;23.298;2022-08-05T14:01:01;6.28;;;4.18;;
7835;SDS011;3963;42.658;23.298;2022-08-05T14:03:27;5.07;;;3.72;;
7835;SDS011;3963;42.658;23.298;2022-08-05T14:05:54;8.05;;;4.70;;
7835;SDS011;3963;42.658;23.298;2022-08-05T14:08:20;4.20;;;3.80;;
7835;SDS011;3963;42.658;23.298;2022-08-05T14:10:48;6.18;;;3.65;;
7835;SDS011;3963;42.658;23.298;2022-08-05T14:13:15;9.30;;;4.03;;
7835;SDS011;3963;42.658;23.298;2022-08-05T14:15:42;7.32;;;4.22;;
7835;SDS011;3963;42.658;23.298;2022-08-05T14:18:09;3.83;;;3.47;;
7835;SDS011;3963;42.658;23.298;2022-08-05T14:20:35;5.30;;;3.72;;
7835;SDS011;3963;42.658;23.298;2022-08-05T14:23:02;4.22;;;3.70;;
7835;SDS011;3963;42.658;23.298;2022-08-05T14:25:29;4.47;;;3.33;;
7835;SDS011;3963;42.658;23.298;2022-08-05T14:27:57;5.00;;;3.70;;
7835;SDS011;3963;42.658;23.298;2022-08-05T14:30:24;7.35;;;3.75;;
7835;SDS011;3963;42.658;23.298;2022-08-05T14:32:52;6.03;;;3.35;;
7835;SDS011;3963;42.658;23.298;2022-08-05T14:35:19;8.27;;;4.00;;
7835;SDS011;3963;42.658;23.298;2022-08-05T14:37:45;6.90;;;3.58;;
7835;SDS011;3963;42.658;23.298;2022-08-05T14:40:12;5.60;;;3.83;;
7835;SDS011;3963;42.658;23.298;2022-08-05T14:42:39;5.28;;;3.95;;
7835;SDS011;3963;42.658;23.298;2022-08-05T14:45:08;7.03;;;3.60;;
7835;SDS011;3963;42.658;23.298;2022-08-05T14:47:35;4.35;;;3.38;;
7835;SDS011;3963;42.658;23.298;2022-08-05T14:50:02;4.18;;;3.22;;
7835;SDS011;3963;42.658;23.298;2022-08-05T14:52:29;6.25;;;3.83;;
7835;SDS011;3963;42.658;23.298;2022-08-05T14:54:56;5.15;;;3.60;;
7835;SDS011;3963;42.658;23.298;2022-08-05T14:57:23;4.78;;;3.72;;
7835;SDS011;3963;42.658;23.298;2022-08-05T14:59:50;4.68;;;3.15;;
7835;SDS011;3963;42.658;23.298;2022-08-05T15:02:18;4.55;;;4.05;;
7835;SDS011;3963;42.658;23.298;2022-08-05T15:04:45;4.80;;;3.78;;
7835;SDS011;3963;42.658;23.298;2022-08-05T15:07:11;4.25;;;3.35;;
7835;SDS011;3963;42.658;23.298;2022-08-05T15:09:38;6.10;;;3.70;;
7835;SDS011;3963;42.658;23.298;2022-08-05T15:12:05;4.15;;;3.53;;
7835;SDS011;3963;42.658;23.298;2022-08-05T15:14:33;5.03;;;4.13;;
7835;SDS011;3963;42.658;23.298;2022-08-05T15:16:59;7.68;;;6.88;;
7835;SDS011;3963;42.658;23.298;2022-08-05T15:19:28;3.85;;;3.50;;
7835;SDS011;3963;42.658;23.298;2022-08-05T15:21:54;7.03;;;3.10;;
7835;SDS011;3963;42.658;23.298;2022-08-05T15:24:21;5.13;;;3.33;;
7835;SDS011;3963;42.658;23.298;2022-08-05T15:26:48;4.43;;;4.00;;
7835;SDS011;3963;42.658;23.298;2022-08-05T15:29:15;4.22;;;3.83;;
7835;SDS011;3963;42.658;23.298;2022-08-05T15:31:41;18.23;;;4.53;;